Aviation Digital Data Service (ADDS)

Output produced by METARs form (1852 UTC 23 January 2019)
found at http://aviationweather.gov/metar/data/
 
KMLU 231739Z 2318/2418 30012G20KT P6SM OVC015 
     TEMPO 2318/2320 4SM -SNPL BR OVC008 
     FM232000 30012G22KT P6SM OVC025 
     FM232200 30010KT P6SM BKN025 
     FM240000 31005KT P6SM SKC